Time;durP1;ratioP1;P1;durP2;ratioP2;P2;SDS_P1;SDS_P2;PMS_P1;PMS_P2;Temp;Humidity;BMP_temperature;BMP_pressure;BME280_temperature;BME280_humidity;BME280_pressure;Samples;Min_cycle;Max_cycle;Signal;HPM_P1;HPM_P2
2022/12/21 01:40:48;;;;;;;16.25;7.55;;;;;;;;;;6189536;22;20031;-72
2022/12/21 01:48:37;;;;;;;20.08;8.48;;;;;;;;;;5055842;27;20407;-72
2022/12/21 01:51:07;;;;;;;16.70;7.55;;;;;;;;;;4976420;28;20062;-71
2022/12/21 01:53:41;;;;;;;16.67;7.72;;;;;;;;;;4962224;28;20046;-72
2022/12/21 01:56:10;;;;;;;16.95;7.07;;;;;;;;;;5007626;28;20037;-73
2022/12/21 01:58:37;;;;;;;18.30;7.72;;;;;;;;;;5031635;28;20055;-73
2022/12/21 02:01:05;;;;;;;18.23;7.65;;;;;;;;;;5019333;28;20045;-70
2022/12/21 02:03:34;;;;;;;19.77;8.70;;;;;;;;;;5016322;28;20155;-70
2022/12/21 02:06:03;;;;;;;19.05;7.93;;;;;;;;;;5017290;28;20049;-73
2022/12/21 02:08:32;;;;;;;17.98;7.35;;;;;;;;;;5009609;28;20049;-73
2022/12/21 02:11:00;;;;;;;17.77;8.35;;;;;;;;;;4987197;28;20053;-73
2022/12/21 02:13:27;;;;;;;17.63;8.38;;;;;;;;;;5030410;28;20057;-73
2022/12/21 02:15:59;;;;;;;16.95;7.80;;;;;;;;;;5016100;28;20053;-73
2022/12/21 02:18:33;;;;;;;17.73;8.05;;;;;;;;;;5004983;28;20054;-70
2022/12/21 02:21:23;;;;;;;18.77;8.55;;;;;;;;;;4998865;28;20062;-71
2022/12/21 02:24:14;;;;;;;17.42;8.68;;;;;;;;;;4998073;28;20243;-71
2022/12/21 02:26:40;;;;;;;;;;;;;;;;;;4968801;28;20089;-73
2022/12/21 02:29:30;;;;;;;19.15;8.15;;;;;;;;;;4997561;28;20380;-71
2022/12/21 02:45:35;;;;;;;15.52;6.82;;;;;;;;;;4980543;27;1605897;-74
2022/12/21 02:48:05;;;;;;;18.50;7.90;;;;;;;;;;5012468;28;20041;-72
2022/12/21 02:50:35;;;;;;;18.17;7.90;;;;;;;;;;5028582;28;20053;-72
2022/12/21 02:53:14;;;;;;;16.25;7.45;;;;;;;;;;4960663;28;20143;-72
2022/12/21 02:55:41;;;;;;;16.63;7.78;;;;;;;;;;4961928;28;20050;-73
2022/12/21 02:58:17;;;;;;;16.98;7.15;;;;;;;;;;5005143;28;20064;-73
2022/12/21 03:00:53;;;;;;;15.73;7.30;;;;;;;;;;5018632;28;20837;-73
2022/12/21 03:06:13;;;;;;;16.52;7.50;;;;;;;;;;5038979;28;20243;-72
2022/12/21 03:08:49;;;;;;;16.77;7.18;;;;;;;;;;5028824;28;20060;-74
2022/12/21 03:11:18;;;;;;;16.50;7.30;;;;;;;;;;4977995;28;20127;-74
2022/12/21 03:13:48;;;;;;;19.30;7.80;;;;;;;;;;5018208;28;20139;-74
2022/12/21 03:16:18;;;;;;;16.10;7.28;;;;;;;;;;4961270;28;20045;-73
2022/12/21 03:18:54;;;;;;;15.07;7.18;;;;;;;;;;5009752;28;20057;-72
2022/12/21 03:21:24;;;;;;;17.60;7.60;;;;;;;;;;4987674;28;20049;-75
2022/12/21 03:23:55;;;;;;;16.88;7.47;;;;;;;;;;4975235;28;20054;-73
2022/12/21 03:26:24;;;;;;;18.45;7.68;;;;;;;;;;4960455;28;20048;-74
2022/12/21 03:28:53;;;;;;;17.55;7.57;;;;;;;;;;5024659;28;20055;-74
2022/12/21 03:31:20;;;;;;;;;;;;;;;;;;4936393;28;20102;-73
2022/12/21 03:39:02;;;;;;;16.85;7.30;;;;;;;;;;4954794;27;20131;-72
2022/12/21 03:41:34;;;;;;;17.27;7.10;;;;;;;;;;4944613;28;20058;-71
2022/12/21 03:44:04;;;;;;;17.98;7.63;;;;;;;;;;4975889;28;20112;-71
2022/12/21 03:46:32;;;;;;;16.55;6.97;;;;;;;;;;4965040;28;20058;-72
2022/12/21 03:49:01;;;;;;;16.33;6.95;;;;;;;;;;4975762;28;20046;-71
2022/12/21 03:51:31;;;;;;;16.90;7.38;;;;;;;;;;4978572;28;20059;-70
2022/12/21 03:54:02;;;;;;;14.48;6.70;;;;;;;;;;4996194;28;20074;-73
2022/12/21 03:56:31;;;;;;;14.13;6.90;;;;;;;;;;4972463;28;20053;-72
2022/12/21 03:59:00;;;;;;;17.90;7.10;;;;;;;;;;4978998;28;20101;-71
2022/12/21 04:01:32;;;;;;;15.38;6.95;;;;;;;;;;4952718;28;20105;-70
2022/12/21 04:04:03;;;;;;;15.07;7.18;;;;;;;;;;4996755;28;20052;-72
2022/12/21 04:06:32;;;;;;;15.77;6.75;;;;;;;;;;5023649;28;20053;-70
2022/12/21 04:09:03;;;;;;;16.52;7.35;;;;;;;;;;5034836;28;20107;-73
2022/12/21 04:14:22;;;;;;;17.58;7.90;;;;;;;;;;4988376;28;20057;-71
2022/12/21 04:16:49;;;;;;;17.77;7.72;;;;;;;;;;5006246;28;20049;-72
2022/12/21 04:21:59;;;;;;;15.50;6.97;;;;;;;;;;4995463;28;20136;-71
2022/12/21 04:29:58;;;;;;;16.33;7.03;;;;;;;;;;5024673;28;20048;-71
2022/12/21 04:32:30;;;;;;;17.80;7.40;;;;;;;;;;5013979;28;20057;-71
2022/12/21 04:34:56;;;;;;;19.05;7.35;;;;;;;;;;5024988;28;20053;-70
2022/12/21 04:37:30;;;;;;;19.85;7.63;;;;;;;;;;5018747;28;20049;-73
2022/12/21 04:40:01;;;;;;;21.60;7.78;;;;;;;;;;5023500;28;20045;-72
2022/12/21 04:42:32;;;;;;;16.90;6.97;;;;;;;;;;5033464;28;20135;-71
2022/12/21 04:45:00;;;;;;;15.50;7.03;;;;;;;;;;4982501;28;20128;-70
2022/12/21 04:47:28;;;;;;;17.83;7.60;;;;;;;;;;5051254;28;20060;-72
2022/12/21 04:49:55;;;;;;;16.80;7.57;;;;;;;;;;5023548;28;20079;-71
2022/12/21 04:52:22;;;;;;;17.13;8.15;;;;;;;;;;5038173;28;20071;-72
2022/12/21 04:54:48;;;;;;;19.80;7.85;;;;;;;;;;5037284;28;20076;-71
2022/12/21 04:57:24;;;;;;;17.48;7.35;;;;;;;;;;5041739;28;20044;-73
2022/12/21 04:59:51;;;;;;;17.23;7.78;;;;;;;;;;5043889;28;20112;-70
2022/12/21 05:02:22;;;;;;;22.10;8.55;;;;;;;;;;5037171;28;20047;-71
2022/12/21 05:04:52;;;;;;;20.17;8.43;;;;;;;;;;5007414;28;20049;-71
2022/12/21 05:07:22;;;;;;;19.73;7.82;;;;;;;;;;5051794;28;20041;-72
2022/12/21 05:09:55;;;;;;;19.35;8.07;;;;;;;;;;5048665;28;20053;-72
2022/12/21 05:12:23;;;;;;;21.60;8.75;;;;;;;;;;5058368;28;20052;-71
2022/12/21 05:14:53;;;;;;;20.17;8.07;;;;;;;;;;5012859;28;20078;-71
2022/12/21 05:17:22;;;;;;;17.52;7.80;;;;;;;;;;5002287;28;20047;-72
2022/12/21 05:19:50;;;;;;;20.70;8.40;;;;;;;;;;5001554;28;20048;-71
2022/12/21 05:22:19;;;;;;;20.17;8.43;;;;;;;;;;5051669;28;20060;-72
2022/12/21 05:24:46;;;;;;;;;;;;;;;;;;5001429;28;20139;-71
2022/12/21 05:27:22;;;;;;;18.88;7.88;;;;;;;;;;5031765;28;19939;-71
2022/12/21 05:30:02;;;;;;;19.08;8.20;;;;;;;;;;5015402;28;20144;-71
2022/12/21 05:32:35;;;;;;;18.92;7.97;;;;;;;;;;5025584;28;20056;-71
2022/12/21 05:35:14;;;;;;;17.15;7.93;;;;;;;;;;5024798;28;20049;-71
2022/12/21 05:37:42;;;;;;;20.63;9.02;;;;;;;;;;5035831;28;20096;-72
2022/12/21 05:40:12;;;;;;;24.20;8.73;;;;;;;;;;5042592;28;20060;-72
2022/12/21 05:42:38;;;;;;;18.35;7.85;;;;;;;;;;5047432;28;20049;-71
2022/12/21 05:45:10;;;;;;;19.10;7.90;;;;;;;;;;5026955;28;20060;-71
2022/12/21 05:47:37;;;;;;;18.15;7.95;;;;;;;;;;5035849;28;20061;-72
2022/12/21 05:50:09;;;;;;;19.63;8.13;;;;;;;;;;5010926;28;20098;-72
2022/12/21 05:52:41;;;;;;;19.55;8.43;;;;;;;;;;5013602;28;20106;-71
2022/12/21 05:55:11;;;;;;;21.67;8.93;;;;;;;;;;5018848;28;20056;-71
2022/12/21 05:57:40;;;;;;;19.48;8.38;;;;;;;;;;5036813;28;20127;-72
2022/12/21 06:00:17;;;;;;;18.77;8.25;;;;;;;;;;5039810;28;20079;-72
2022/12/21 06:02:45;;;;;;;21.58;8.82;;;;;;;;;;5036699;28;20070;-71
2022/12/21 06:05:26;;;;;;;;;;;;;;;;;;;;;
2022/12/21 06:08:06;;;;;;;20.38;8.77;;;;;;;;;;4990827;28;20090;-72
2022/12/21 06:10:44;;;;;;;19.95;8.82;;;;;;;;;;5043705;28;20084;-70
2022/12/21 06:13:11;;;;;;;22.30;9.52;;;;;;;;;;5020388;28;20506;-72
2022/12/21 06:18:31;;;;;;;24.60;9.10;;;;;;;;;;4974457;28;20059;-71
2022/12/21 06:21:04;;;;;;;20.73;9.15;;;;;;;;;;5016555;28;20134;-71
2022/12/21 06:26:46;;;;;;;21.65;8.80;;;;;;;;;;4981033;28;20504;-71
2022/12/21 06:29:29;;;;;;;17.80;8.10;;;;;;;;;;5016073;28;20048;-72
2022/12/21 06:34:55;;;;;;;19.35;8.43;;;;;;;;;;4946126;28;20134;-72
2022/12/21 06:40:09;;;;;;;23.95;9.20;;;;;;;;;;5003974;28;20044;-71
2022/12/21 06:42:36;;;;;;;25.83;9.80;;;;;;;;;;5011010;28;20049;-71
2022/12/21 06:45:08;;;;;;;23.17;9.90;;;;;;;;;;4998793;28;20049;-71
2022/12/21 06:47:57;;;;;;;25.92;9.25;;;;;;;;;;5020193;28;20120;-72
2022/12/21 06:50:27;;;;;;;26.63;9.85;;;;;;;;;;5014741;28;20057;-72
2022/12/21 06:53:00;;;;;;;24.92;10.18;;;;;;;;;;5027420;28;20119;-73
2022/12/21 06:55:41;;;;;;;25.65;9.68;;;;;;;;;;4954071;28;20061;-72
2022/12/21 06:58:25;;;;;;;25.38;9.95;;;;;;;;;;4983852;28;20057;-72
2022/12/21 07:01:02;;;;;;;25.88;10.15;;;;;;;;;;5041876;28;20052;-73
2022/12/21 07:04:06;;;;;;;28.75;10.45;;;;;;;;;;5038426;28;20102;-73
2022/12/21 07:06:50;;;;;;;21.10;9.48;;;;;;;;;;5011307;28;20052;-72
2022/12/21 07:09:49;;;;;;;28.17;10.13;;;;;;;;;;5014547;28;20143;-73
2022/12/21 07:12:19;;;;;;;26.10;9.95;;;;;;;;;;5031928;28;20049;-71
2022/12/21 07:17:35;;;;;;;26.15;11.00;;;;;;;;;;5003956;28;20077;-72
2022/12/21 07:22:59;;;;;;;27.67;10.60;;;;;;;;;;4995053;28;20049;-72
2022/12/21 07:31:12;;;;;;;27.30;11.00;;;;;;;;;;4966043;28;20447;-74
2022/12/21 07:33:42;;;;;;;25.92;10.82;;;;;;;;;;4846849;29;20076;-73
2022/12/21 07:39:04;;;;;;;25.63;10.77;;;;;;;;;;5047876;27;1662077;-73
2022/12/21 07:44:47;;;;;;;29.67;10.73;;;;;;;;;;4978091;28;20136;-73
2022/12/21 08:20:41;;;;;;;25.02;10.80;;;;;;;;;;4770187;29;20081;-73
2022/12/21 09:04:28;;;;;;;25.35;9.98;;;;;;;;;;5046361;28;20059;-73
2022/12/21 09:07:07;;;;;;;24.83;10.70;;;;;;;;;;4972147;28;20108;-73
2022/12/21 09:09:45;;;;;;;25.05;10.02;;;;;;;;;;5000974;28;20057;-73
2022/12/21 09:45:15;;;;;;;24.40;9.40;;;;;;;;;;4839406;29;20053;-73
2022/12/21 09:48:27;;;;;;;20.02;7.53;;;;;;;;;;4832242;29;20138;-73
2022/12/21 10:05:47;;;;;;;24.70;9.35;;;;;;;;;;5007998;28;20045;-72
2022/12/21 10:08:25;;;;;;;20.92;8.93;;;;;;;;;;4937385;28;20061;-72
2022/12/21 10:10:58;;;;;;;20.38;8.73;;;;;;;;;;5004021;28;20085;-71
2022/12/21 10:13:40;;;;;;;25.40;8.80;;;;;;;;;;5018847;28;20060;-71
2022/12/21 10:22:09;;;;;;;18.88;8.18;;;;;;;;;;4993519;28;20114;-72
2022/12/21 10:24:43;;;;;;;27.48;10.30;;;;;;;;;;4993814;28;20061;-72
2022/12/21 10:27:29;;;;;;;20.90;8.93;;;;;;;;;;4962227;28;21969;-71
2022/12/21 10:30:09;;;;;;;24.77;8.48;;;;;;;;;;5002629;28;20114;-72
2022/12/21 10:32:52;;;;;;;22.58;9.45;;;;;;;;;;5019884;28;20056;-72
2022/12/21 10:35:27;;;;;;;24.35;8.75;;;;;;;;;;5003737;28;20056;-73
2022/12/21 10:53:47;;;;;;;18.30;8.15;;;;;;;;;;4972072;28;20050;-72
2022/12/21 10:56:39;;;;;;;20.92;8.27;;;;;;;;;;5008514;28;20080;-72
2022/12/21 11:23:31;;;;;;;17.25;6.80;;;;;;;;;;4872102;29;20092;-71
2022/12/21 11:26:23;;;;;;;20.13;8.50;;;;;;;;;;4880269;29;20052;-71
2022/12/21 11:32:40;;;;;;;18.40;8.18;;;;;;;;;;4831259;29;20053;-71
2022/12/21 11:41:39;;;;;;;19.67;8.13;;;;;;;;;;4852476;29;20268;-71
2022/12/21 11:50:46;;;;;;;18.50;7.85;;;;;;;;;;4961083;28;20045;-71
2022/12/21 11:59:36;;;;;;;16.60;7.40;;;;;;;;;;4925205;28;20516;-72
2022/12/21 12:02:23;;;;;;;27.63;8.38;;;;;;;;;;4981536;28;20080;-71
2022/12/21 12:05:02;;;;;;;19.60;8.70;;;;;;;;;;4974454;28;20059;-71
2022/12/21 12:07:47;;;;;;;21.60;8.48;;;;;;;;;;4989629;28;20049;-71
2022/12/21 12:10:38;;;;;;;19.67;8.15;;;;;;;;;;4986806;28;20190;-71
2022/12/21 12:13:29;;;;;;;20.40;8.35;;;;;;;;;;4970811;28;20166;-71
2022/12/21 12:16:16;;;;;;;;;;;;;;;;;;;;;
2022/12/21 12:18:56;;;;;;;21.73;8.30;;;;;;;;;;4968534;28;20067;-71
2022/12/21 12:21:34;;;;;;;20.42;8.73;;;;;;;;;;4965469;28;20057;-71
2022/12/21 12:24:28;;;;;;;19.17;8.25;;;;;;;;;;4988333;28;20110;-71
2022/12/21 12:27:02;;;;;;;20.30;8.70;;;;;;;;;;4969197;28;20052;-71
2022/12/21 12:33:02;;;;;;;26.15;9.80;;;;;;;;;;4987567;28;20099;-71
2022/12/21 12:35:48;;;;;;;25.05;9.70;;;;;;;;;;4980346;28;20054;-71
2022/12/21 12:38:33;;;;;;;23.65;9.00;;;;;;;;;;4959522;28;20067;-71
2022/12/21 12:44:34;;;;;;;22.65;9.32;;;;;;;;;;4990497;28;20099;-71
2022/12/21 12:47:34;;;;;;;26.70;10.20;;;;;;;;;;5018977;28;20057;-70
2022/12/21 12:53:18;;;;;;;28.27;10.15;;;;;;;;;;4991634;28;20053;-70
2022/12/21 12:56:17;;;;;;;28.55;10.57;;;;;;;;;;4972098;28;20743;-71
2022/12/21 12:59:14;;;;;;;47.40;12.15;;;;;;;;;;4955324;28;20053;-70
2022/12/21 13:01:43;;;;;;;40.67;12.55;;;;;;;;;;4999795;28;20053;-71
2022/12/21 13:04:34;;;;;;;26.33;11.10;;;;;;;;;;4992931;28;20041;-70
2022/12/21 13:07:30;;;;;;;29.92;10.43;;;;;;;;;;5016546;28;20154;-70
2022/12/21 13:21:57;;;;;;;25.02;10.13;;;;;;;;;;4974011;28;20057;-71
2022/12/21 13:24:30;;;;;;;24.52;9.57;;;;;;;;;;4959459;28;20502;-71
2022/12/21 13:27:15;;;;;;;26.98;9.95;;;;;;;;;;4987537;28;20210;-71
2022/12/21 13:29:51;;;;;;;24.23;9.63;;;;;;;;;;4954845;28;20055;-71
2022/12/21 13:36:11;;;;;;;23.17;9.30;;;;;;;;;;4984999;28;20061;-71
2022/12/21 13:38:47;;;;;;;23.50;9.45;;;;;;;;;;4975029;28;20143;-71
2022/12/21 13:44:30;;;;;;;22.75;9.30;;;;;;;;;;4979378;28;20503;-71
2022/12/21 13:47:23;;;;;;;22.15;8.35;;;;;;;;;;4987296;28;20050;-71
2022/12/21 13:50:31;;;;;;;20.88;8.30;;;;;;;;;;4968818;28;20052;-71
2022/12/21 13:53:21;;;;;;;21.00;9.23;;;;;;;;;;4979746;28;20063;-71
2022/12/21 13:56:07;;;;;;;22.50;8.85;;;;;;;;;;4984537;28;20112;-71
2022/12/21 14:01:33;;;;;;;;;;;;;;;;;;4952220;28;20109;-71
2022/12/21 14:04:07;;;;;;;17.95;8.05;;;;;;;;;;4991817;28;20004;-71
2022/12/21 14:07:06;;;;;;;;;;;;;;;;;;;;;
2022/12/21 14:09:55;;;;;;;16.35;7.90;;;;;;;;;;4927208;28;20076;-72
2022/12/21 14:12:45;;;;;;;22.60;8.10;;;;;;;;;;4982775;28;20057;-72
2022/12/21 14:15:29;;;;;;;22.35;9.15;;;;;;;;;;4971567;28;20058;-71
2022/12/21 14:18:10;;;;;;;17.27;8.48;;;;;;;;;;4981205;28;20054;-71
2022/12/21 14:20:43;;;;;;;21.63;8.23;;;;;;;;;;4955764;28;20057;-71
2022/12/21 14:23:31;;;;;;;17.58;7.88;;;;;;;;;;4969270;28;20059;-72
2022/12/21 14:29:35;;;;;;;21.85;7.70;;;;;;;;;;4946507;28;20045;-71
2022/12/21 14:32:24;;;;;;;16.00;6.90;;;;;;;;;;4938467;28;20055;-70
2022/12/21 14:35:09;;;;;;;17.02;7.13;;;;;;;;;;4980449;28;20053;-71
2022/12/21 14:41:20;;;;;;;18.40;7.88;;;;;;;;;;5009200;28;20046;-71
2022/12/21 14:44:23;;;;;;;17.27;7.43;;;;;;;;;;4969959;28;20061;-71
2022/12/21 14:50:20;;;;;;;17.42;7.13;;;;;;;;;;4910264;28;20136;-71
2022/12/21 14:52:58;;;;;;;15.60;7.10;;;;;;;;;;4914720;28;20085;-70
2022/12/21 14:55:47;;;;;;;16.08;6.60;;;;;;;;;;4929022;28;20054;-70
2022/12/21 14:58:29;;;;;;;18.15;6.53;;;;;;;;;;4890600;28;20138;-71
2022/12/21 15:01:18;;;;;;;14.45;6.30;;;;;;;;;;4909738;28;20058;-71
2022/12/21 15:03:54;;;;;;;13.50;6.45;;;;;;;;;;4936479;28;20086;-71
2022/12/21 15:06:44;;;;;;;17.23;6.72;;;;;;;;;;4941426;28;20220;-70
2022/12/21 15:09:48;;;;;;;;;;;;;;;;;;;;;
2022/12/21 15:12:25;;;;;;;14.05;6.60;;;;;;;;;;4954784;28;20046;-70
2022/12/21 15:18:00;;;;;;;12.60;6.82;;;;;;;;;;4948245;28;20069;-70
2022/12/21 15:24:05;;;;;;;12.82;5.93;;;;;;;;;;4936146;28;20046;-71
2022/12/21 15:26:45;;;;;;;15.60;6.15;;;;;;;;;;4998389;28;20193;-70
2022/12/21 15:29:52;;;;;;;13.48;5.55;;;;;;;;;;4996474;28;20060;-71
2022/12/21 15:35:24;;;;;;;12.38;6.18;;;;;;;;;;4999058;28;20041;-73
2022/12/21 15:37:54;;;;;;;11.50;5.22;;;;;;;;;;4998378;28;20176;-71
2022/12/21 15:40:22;;;;;;;15.50;6.35;;;;;;;;;;4955391;28;20136;-71
2022/12/21 15:45:49;;;;;;;12.50;5.80;;;;;;;;;;5014553;28;20049;-71
2022/12/21 15:48:22;;;;;;;11.38;5.80;;;;;;;;;;4979818;28;20081;-71
2022/12/21 15:51:19;;;;;;;12.27;5.63;;;;;;;;;;4975437;28;20048;-71
2022/12/21 15:54:15;;;;;;;10.73;5.22;;;;;;;;;;4995210;28;20059;-71
2022/12/21 15:56:56;;;;;;;14.75;5.13;;;;;;;;;;5004929;28;20112;-71
2022/12/21 15:59:29;;;;;;;13.18;5.35;;;;;;;;;;4986535;28;20144;-71
2022/12/21 16:01:58;;;;;;;15.10;5.57;;;;;;;;;;4986285;28;20068;-71
2022/12/21 16:04:44;;;;;;;12.82;5.18;;;;;;;;;;4993396;28;20053;-71
2022/12/21 16:07:18;;;;;;;12.13;5.05;;;;;;;;;;4980520;28;20080;-72
2022/12/21 16:09:53;;;;;;;11.25;5.45;;;;;;;;;;5008794;28;20063;-71
2022/12/21 16:12:35;;;;;;;13.55;4.85;;;;;;;;;;4998345;28;20053;-71
2022/12/21 16:15:18;;;;;;;12.32;5.13;;;;;;;;;;4994944;28;20045;-71
2022/12/21 16:18:04;;;;;;;11.07;5.30;;;;;;;;;;5022144;28;20073;-71
2022/12/21 16:20:35;;;;;;;12.52;4.88;;;;;;;;;;4970394;28;20049;-71
2022/12/21 16:23:04;;;;;;;11.15;5.07;;;;;;;;;;5015711;28;20050;-71
2022/12/21 16:25:33;;;;;;;11.48;5.28;;;;;;;;;;4957765;28;20056;-71
2022/12/21 16:28:25;;;;;;;10.40;4.80;;;;;;;;;;5000061;28;20061;-71
2022/12/21 16:31:21;;;;;;;9.70;4.68;;;;;;;;;;5009794;28;20057;-71
2022/12/21 16:37:27;;;;;;;11.43;4.93;;;;;;;;;;4998354;28;20080;-71
2022/12/21 16:40:00;;;;;;;10.82;5.03;;;;;;;;;;5021178;28;20056;-71
2022/12/21 16:42:38;;;;;;;10.43;5.00;;;;;;;;;;4998057;28;20057;-71
2022/12/21 16:45:37;;;;;;;8.30;4.50;;;;;;;;;;5018141;28;20061;-72
2022/12/21 16:48:19;;;;;;;10.68;4.50;;;;;;;;;;4988592;28;20145;-70
2022/12/21 16:50:50;;;;;;;11.32;4.47;;;;;;;;;;4990423;28;20061;-70
2022/12/21 16:53:42;;;;;;;9.73;4.65;;;;;;;;;;5012933;28;20041;-70
2022/12/21 16:56:28;;;;;;;9.73;4.40;;;;;;;;;;5032652;28;20053;-70
2022/12/21 16:58:57;;;;;;;9.68;4.70;;;;;;;;;;5023661;28;20057;-70
2022/12/21 17:01:53;;;;;;;13.98;5.65;;;;;;;;;;5005458;28;20983;-70
2022/12/21 17:04:27;;;;;;;13.00;5.10;;;;;;;;;;5030191;28;20198;-71
2022/12/21 17:07:16;;;;;;;10.75;4.82;;;;;;;;;;5005535;28;20072;-71
2022/12/21 17:16:00;;;;;;;12.60;4.78;;;;;;;;;;4980309;28;20159;-71
2022/12/21 17:18:48;;;;;;;10.30;4.80;;;;;;;;;;4993375;28;20052;-71
2022/12/21 17:21:28;;;;;;;9.10;4.22;;;;;;;;;;4964065;28;20057;-71
2022/12/21 17:23:55;;;;;;;10.40;4.70;;;;;;;;;;5007862;28;20045;-71
2022/12/21 17:26:38;;;;;;;11.68;4.82;;;;;;;;;;5018513;28;20060;-71
2022/12/21 17:29:06;;;;;;;12.90;4.82;;;;;;;;;;5003560;28;20056;-71
2022/12/21 17:31:39;;;;;;;10.13;4.80;;;;;;;;;;4996348;28;20067;-71
2022/12/21 17:34:11;;;;;;;10.23;4.30;;;;;;;;;;5006106;28;20076;-71
2022/12/21 17:36:56;;;;;;;12.65;5.10;;;;;;;;;;4998862;28;20057;-71
2022/12/21 17:39:44;;;;;;;9.25;4.30;;;;;;;;;;4980804;28;20085;-73
2022/12/21 17:42:15;;;;;;;8.65;3.72;;;;;;;;;;4982865;28;20053;-70
2022/12/21 17:44:48;;;;;;;16.58;4.90;;;;;;;;;;5008135;28;20069;-71
2022/12/21 17:47:30;;;;;;;10.38;4.15;;;;;;;;;;5000910;28;20049;-71
2022/12/21 17:50:25;;;;;;;10.27;4.40;;;;;;;;;;4971759;28;20124;-71
2022/12/21 17:56:34;;;;;;;12.65;4.88;;;;;;;;;;4993542;28;20053;-71
2022/12/21 17:59:15;;;;;;;11.57;4.78;;;;;;;;;;4981379;28;20065;-73
2022/12/21 18:02:00;;;;;;;9.55;4.35;;;;;;;;;;4961727;28;20058;-71
2022/12/21 18:04:29;;;;;;;10.82;5.20;;;;;;;;;;4978324;28;20068;-70
2022/12/21 18:07:01;;;;;;;11.77;5.03;;;;;;;;;;4969336;28;20050;-72
2022/12/21 18:09:47;;;;;;;10.02;4.00;;;;;;;;;;4975351;28;20072;-71
2022/12/21 18:12:19;;;;;;;11.40;4.55;;;;;;;;;;4942444;28;20056;-72
2022/12/21 18:18:48;;;;;;;10.27;4.15;;;;;;;;;;4970953;28;20209;-71
2022/12/21 18:21:21;;;;;;;9.27;4.13;;;;;;;;;;4925700;28;20173;-71
2022/12/21 18:24:07;;;;;;;8.82;4.20;;;;;;;;;;4930158;28;20057;-73
2022/12/21 18:26:46;;;;;;;8.60;3.60;;;;;;;;;;4950559;28;20172;-73
2022/12/21 18:29:36;;;;;;;9.15;4.38;;;;;;;;;;4969393;28;20054;-71
2022/12/21 18:35:23;;;;;;;7.88;3.78;;;;;;;;;;4934196;28;20085;-71
2022/12/21 18:40:56;;;;;;;8.27;3.78;;;;;;;;;;4907369;28;20046;-71
2022/12/21 18:47:32;;;;;;;10.00;4.10;;;;;;;;;;4967652;28;20084;-71
2022/12/21 18:50:15;;;;;;;9.52;4.22;;;;;;;;;;4935888;28;20124;-71
2022/12/21 18:52:52;;;;;;;13.18;3.97;;;;;;;;;;4935891;28;20040;-71
2022/12/21 18:55:29;;;;;;;7.47;3.75;;;;;;;;;;5002981;28;20057;-71
2022/12/21 18:58:03;;;;;;;8.93;3.95;;;;;;;;;;4984900;28;20076;-71
2022/12/21 19:00:38;;;;;;;9.98;4.32;;;;;;;;;;4950586;28;20046;-71
2022/12/21 19:03:39;;;;;;;11.60;3.85;;;;;;;;;;4929023;28;20153;-72
2022/12/21 19:09:42;;;;;;;7.97;3.83;;;;;;;;;;4956902;28;20057;-72
2022/12/21 19:12:26;;;;;;;8.07;3.92;;;;;;;;;;4980731;28;20132;-73
2022/12/21 19:22:19;;;;;;;7.82;3.25;;;;;;;;;;4994040;28;20057;-71
2022/12/21 19:25:26;;;;;;;7.40;3.90;;;;;;;;;;4977906;28;20111;-71
2022/12/21 19:31:40;;;;;;;8.07;3.17;;;;;;;;;;5013481;28;20072;-74
2022/12/21 19:34:43;;;;;;;8.68;3.85;;;;;;;;;;5000417;28;20057;-71
2022/12/21 19:37:44;;;;;;;8.48;3.55;;;;;;;;;;4947344;28;20058;-72
2022/12/21 19:47:40;;;;;;;10.15;3.60;;;;;;;;;;4901389;29;20090;-71
2022/12/21 20:05:58;;;;;;;6.97;3.20;;;;;;;;;;4997214;28;20084;-71
2022/12/21 20:08:28;;;;;;;8.55;3.65;;;;;;;;;;5012606;28;20103;-71
2022/12/21 20:14:36;;;;;;;7.72;3.47;;;;;;;;;;4997822;28;20048;-72
2022/12/21 20:34:15;;;;;;;6.93;3.40;;;;;;;;;;4858399;29;20124;-74
2022/12/21 20:37:22;;;;;;;9.75;4.07;;;;;;;;;;4875188;29;20107;-74
2022/12/21 20:47:22;;;;;;;10.07;3.92;;;;;;;;;;4822081;29;20091;-71
2022/12/21 22:10:33;;;;;;;8.15;3.72;;;;;;;;;;6135491;22;1867508;-75
2022/12/21 22:13:01;;;;;;;9.68;3.85;;;;;;;;;;6124799;23;20066;-74
2022/12/21 22:15:32;;;;;;;9.55;3.92;;;;;;;;;;6082725;23;20359;-70
2022/12/21 22:32:16;;;;;;;7.22;3.58;;;;;;;;;;6081923;23;20108;-70
2022/12/21 22:43:04;;;;;;;7.85;3.83;;;;;;;;;;6082647;23;20026;-71
2022/12/21 22:45:38;;;;;;;7.75;3.85;;;;;;;;;;6130840;23;20033;-74
2022/12/21 22:48:07;;;;;;;7.25;3.80;;;;;;;;;;6135230;23;20022;-72
2022/12/21 22:50:36;;;;;;;8.57;4.10;;;;;;;;;;6123180;23;20022;-70
2022/12/21 22:53:02;;;;;;;;;;;;;;;;;;6019388;23;20118;-73
2022/12/21 22:55:33;;;;;;;8.75;4.30;;;;;;;;;;6100957;23;19921;-73
2022/12/21 22:58:05;;;;;;;7.53;3.53;;;;;;;;;;6111730;23;20025;-72
2022/12/21 23:00:34;;;;;;;8.30;3.85;;;;;;;;;;6114616;23;20026;-74
2022/12/21 23:03:02;;;;;;;9.05;4.45;;;;;;;;;;6041923;23;20149;-70
2022/12/21 23:05:31;;;;;;;9.60;4.40;;;;;;;;;;6058468;23;20101;-70
2022/12/21 23:08:00;;;;;;;8.23;4.07;;;;;;;;;;6110688;23;20040;-73
2022/12/21 23:10:26;;;;;;;8.43;4.15;;;;;;;;;;6089353;23;20038;-72
2022/12/21 23:15:40;;;;;;;12.48;4.32;;;;;;;;;;6051838;23;20034;-74
2022/12/21 23:18:36;;;;;;;7.60;3.80;;;;;;;;;;6048280;23;20025;-71
2022/12/21 23:29:20;;;;;;;11.32;4.28;;;;;;;;;;6053996;23;20081;-70
2022/12/21 23:45:28;;;;;;;10.55;5.03;;;;;;;;;;6003315;23;20022;-71
